sensor_id;sensor_type;location;lat;lon;timestamp;P1;durP1;ratioP1;P2;durP2;ratioP2
18274;SDS011;19470;49.322;7.218;2023-02-24T00:02:24;30.10;;;15.45;;
18274;SDS011;19470;49.322;7.218;2023-02-24T00:04:51;29.38;;;16.25;;
18274;SDS011;19470;49.322;7.218;2023-02-24T00:07:17;30.90;;;15.90;;
18274;SDS011;19470;49.322;7.218;2023-02-24T00:09:46;33.13;;;17.00;;
18274;SDS011;19470;49.322;7.218;2023-02-24T00:12:14;32.88;;;17.25;;
18274;SDS011;19470;49.322;7.218;2023-02-24T00:14:42;33.90;;;15.52;;
18274;SDS011;19470;49.322;7.218;2023-02-24T00:17:10;38.42;;;18.55;;
18274;SDS011;19470;49.322;7.218;2023-02-24T00:19:38;39.10;;;19.00;;
18274;SDS011;19470;49.322;7.218;2023-02-24T00:22:05;36.63;;;17.90;;
18274;SDS011;19470;49.322;7.218;2023-02-24T00:24:33;35.72;;;18.75;;
18274;SDS011;19470;49.322;7.218;2023-02-24T00:27:02;35.63;;;17.55;;
18274;SDS011;19470;49.322;7.218;2023-02-24T00:29:32;36.83;;;18.58;;
18274;SDS011;19470;49.322;7.218;2023-02-24T00:32:01;38.90;;;19.20;;
18274;SDS011;19470;49.322;7.218;2023-02-24T00:34:31;38.25;;;18.17;;
18274;SDS011;19470;49.322;7.218;2023-02-24T00:37:00;35.80;;;18.33;;
18274;SDS011;19470;49.322;7.218;2023-02-24T00:39:30;40.33;;;18.02;;
18274;SDS011;19470;49.322;7.218;2023-02-24T00:41:58;42.75;;;19.50;;
18274;SDS011;19470;49.322;7.218;2023-02-24T00:44:31;38.85;;;18.27;;
18274;SDS011;19470;49.322;7.218;2023-02-24T00:46:58;39.47;;;18.23;;
18274;SDS011;19470;49.322;7.218;2023-02-24T00:49:26;38.00;;;19.83;;
18274;SDS011;19470;49.322;7.218;2023-02-24T00:51:58;41.53;;;19.33;;
18274;SDS011;19470;49.322;7.218;2023-02-24T00:54:25;40.58;;;18.70;;
18274;SDS011;19470;49.322;7.218;2023-02-24T00:56:52;43.50;;;20.45;;
18274;SDS011;19470;49.322;7.218;2023-02-24T00:59:19;44.22;;;19.67;;
18274;SDS011;19470;49.322;7.218;2023-02-24T01:01:49;36.20;;;19.73;;
18274;SDS011;19470;49.322;7.218;2023-02-24T01:04:16;41.28;;;19.50;;
18274;SDS011;19470;49.322;7.218;2023-02-24T01:06:44;42.80;;;21.30;;
18274;SDS011;19470;49.322;7.218;2023-02-24T01:09:13;47.00;;;21.30;;
18274;SDS011;19470;49.322;7.218;2023-02-24T01:11:41;45.72;;;21.30;;
18274;SDS011;19470;49.322;7.218;2023-02-24T01:14:28;45.35;;;21.45;;
18274;SDS011;19470;49.322;7.218;2023-02-24T01:16:57;51.13;;;21.35;;
18274;SDS011;19470;49.322;7.218;2023-02-24T01:19:24;43.90;;;20.73;;
18274;SDS011;19470;49.322;7.218;2023-02-24T01:21:55;47.17;;;21.52;;
18274;SDS011;19470;49.322;7.218;2023-02-24T01:24:22;46.38;;;20.23;;
18274;SDS011;19470;49.322;7.218;2023-02-24T01:26:48;50.88;;;22.27;;
18274;SDS011;19470;49.322;7.218;2023-02-24T01:29:15;48.22;;;20.75;;
18274;SDS011;19470;49.322;7.218;2023-02-24T01:31:42;51.75;;;21.52;;
18274;SDS011;19470;49.322;7.218;2023-02-24T01:34:10;47.00;;;22.35;;
18274;SDS011;19470;49.322;7.218;2023-02-24T01:36:38;45.15;;;21.63;;
18274;SDS011;19470;49.322;7.218;2023-02-24T01:39:07;46.35;;;21.38;;
18274;SDS011;19470;49.322;7.218;2023-02-24T01:41:35;49.67;;;22.80;;
18274;SDS011;19470;49.322;7.218;2023-02-24T01:44:03;47.33;;;20.88;;
18274;SDS011;19470;49.322;7.218;2023-02-24T01:46:34;49.25;;;22.95;;
18274;SDS011;19470;49.322;7.218;2023-02-24T01:49:03;51.90;;;23.42;;
18274;SDS011;19470;49.322;7.218;2023-02-24T01:51:37;85.72;;;39.33;;
18274;SDS011;19470;49.322;7.218;2023-02-24T01:54:07;164.10;;;78.20;;
18274;SDS011;19470;49.322;7.218;2023-02-24T01:56:36;43.85;;;21.20;;
18274;SDS011;19470;49.322;7.218;2023-02-24T01:59:05;48.33;;;22.33;;
18274;SDS011;19470;49.322;7.218;2023-02-24T02:01:33;46.92;;;20.98;;
18274;SDS011;19470;49.322;7.218;2023-02-24T02:04:06;44.60;;;22.02;;
18274;SDS011;19470;49.322;7.218;2023-02-24T02:06:42;49.08;;;22.15;;
18274;SDS011;19470;49.322;7.218;2023-02-24T02:09:09;49.22;;;22.17;;
18274;SDS011;19470;49.322;7.218;2023-02-24T02:11:39;50.60;;;21.88;;
18274;SDS011;19470;49.322;7.218;2023-02-24T02:14:06;52.92;;;21.65;;
18274;SDS011;19470;49.322;7.218;2023-02-24T02:16:45;52.45;;;22.38;;
18274;SDS011;19470;49.322;7.218;2023-02-24T02:19:40;51.55;;;21.55;;
18274;SDS011;19470;49.322;7.218;2023-02-24T02:22:48;43.85;;;19.73;;
18274;SDS011;19470;49.322;7.218;2023-02-24T02:25:45;52.08;;;23.13;;
18274;SDS011;19470;49.322;7.218;2023-02-24T02:28:35;50.22;;;21.73;;
18274;SDS011;19470;49.322;7.218;2023-02-24T02:31:26;50.28;;;21.02;;
18274;SDS011;19470;49.322;7.218;2023-02-24T02:34:20;48.05;;;21.38;;
18274;SDS011;19470;49.322;7.218;2023-02-24T02:37:00;47.97;;;20.90;;
18274;SDS011;19470;49.322;7.218;2023-02-24T02:39:34;47.80;;;21.60;;
18274;SDS011;19470;49.322;7.218;2023-02-24T02:42:17;51.78;;;22.38;;
18274;SDS011;19470;49.322;7.218;2023-02-24T02:44:52;52.65;;;22.13;;
18274;SDS011;19470;49.322;7.218;2023-02-24T02:47:27;46.38;;;21.50;;
18274;SDS011;19470;49.322;7.218;2023-02-24T02:50:00;48.22;;;20.85;;
18274;SDS011;19470;49.322;7.218;2023-02-24T02:52:35;46.90;;;21.08;;
18274;SDS011;19470;49.322;7.218;2023-02-24T02:55:06;47.20;;;21.65;;
18274;SDS011;19470;49.322;7.218;2023-02-24T02:57:38;49.13;;;20.95;;
18274;SDS011;19470;49.322;7.218;2023-02-24T03:00:12;46.35;;;20.48;;
18274;SDS011;19470;49.322;7.218;2023-02-24T03:02:45;52.65;;;23.63;;
18274;SDS011;19470;49.322;7.218;2023-02-24T03:05:18;90.03;;;39.55;;
18274;SDS011;19470;49.322;7.218;2023-02-24T03:07:51;45.65;;;21.40;;
18274;SDS011;19470;49.322;7.218;2023-02-24T03:10:21;47.75;;;21.67;;
18274;SDS011;19470;49.322;7.218;2023-02-24T03:12:52;47.45;;;21.38;;
18274;SDS011;19470;49.322;7.218;2023-02-24T03:15:21;48.53;;;21.73;;
18274;SDS011;19470;49.322;7.218;2023-02-24T03:17:51;48.72;;;21.83;;
18274;SDS011;19470;49.322;7.218;2023-02-24T03:20:25;49.67;;;21.45;;
18274;SDS011;19470;49.322;7.218;2023-02-24T03:22:57;102.70;;;46.53;;
18274;SDS011;19470;49.322;7.218;2023-02-24T03:25:31;51.65;;;22.75;;
18274;SDS011;19470;49.322;7.218;2023-02-24T03:28:05;43.60;;;19.80;;
18274;SDS011;19470;49.322;7.218;2023-02-24T03:30:41;88.97;;;42.75;;
18274;SDS011;19470;49.322;7.218;2023-02-24T03:33:11;77.88;;;37.00;;
18274;SDS011;19470;49.322;7.218;2023-02-24T03:35:45;45.38;;;20.20;;
18274;SDS011;19470;49.322;7.218;2023-02-24T03:38:15;45.03;;;19.73;;
18274;SDS011;19470;49.322;7.218;2023-02-24T03:40:42;48.38;;;20.00;;
18274;SDS011;19470;49.322;7.218;2023-02-24T03:43:09;43.70;;;20.10;;
18274;SDS011;19470;49.322;7.218;2023-02-24T03:45:42;45.35;;;19.80;;
18274;SDS011;19470;49.322;7.218;2023-02-24T03:48:10;45.97;;;20.35;;
18274;SDS011;19470;49.322;7.218;2023-02-24T03:50:38;50.03;;;20.35;;
18274;SDS011;19470;49.322;7.218;2023-02-24T03:53:10;44.30;;;18.55;;
18274;SDS011;19470;49.322;7.218;2023-02-24T03:55:47;46.28;;;20.13;;
18274;SDS011;19470;49.322;7.218;2023-02-24T03:58:25;45.95;;;20.00;;
18274;SDS011;19470;49.322;7.218;2023-02-24T04:01:00;46.03;;;20.38;;
18274;SDS011;19470;49.322;7.218;2023-02-24T04:03:36;77.47;;;33.72;;
18274;SDS011;19470;49.322;7.218;2023-02-24T04:06:11;72.65;;;32.00;;
18274;SDS011;19470;49.322;7.218;2023-02-24T04:08:46;55.90;;;25.17;;
18274;SDS011;19470;49.322;7.218;2023-02-24T04:11:19;48.42;;;21.10;;
18274;SDS011;19470;49.322;7.218;2023-02-24T04:13:51;42.75;;;18.52;;
18274;SDS011;19470;49.322;7.218;2023-02-24T04:16:26;44.55;;;19.48;;
18274;SDS011;19470;49.322;7.218;2023-02-24T04:19:03;43.20;;;19.95;;
18274;SDS011;19470;49.322;7.218;2023-02-24T04:21:34;45.17;;;20.00;;
18274;SDS011;19470;49.322;7.218;2023-02-24T04:24:05;43.20;;;19.85;;
18274;SDS011;19470;49.322;7.218;2023-02-24T04:26:39;45.80;;;19.42;;
18274;SDS011;19470;49.322;7.218;2023-02-24T04:29:09;47.47;;;19.75;;
18274;SDS011;19470;49.322;7.218;2023-02-24T04:31:42;44.63;;;19.75;;
18274;SDS011;19470;49.322;7.218;2023-02-24T04:34:12;41.95;;;19.90;;
18274;SDS011;19470;49.322;7.218;2023-02-24T04:36:44;45.38;;;19.25;;
18274;SDS011;19470;49.322;7.218;2023-02-24T04:39:14;56.20;;;25.13;;
18274;SDS011;19470;49.322;7.218;2023-02-24T04:41:43;126.28;;;55.75;;
18274;SDS011;19470;49.322;7.218;2023-02-24T04:44:13;49.13;;;22.50;;
18274;SDS011;19470;49.322;7.218;2023-02-24T04:46:41;45.20;;;19.27;;
18274;SDS011;19470;49.322;7.218;2023-02-24T04:49:08;44.92;;;20.38;;
18274;SDS011;19470;49.322;7.218;2023-02-24T04:51:34;44.97;;;20.00;;
18274;SDS011;19470;49.322;7.218;2023-02-24T04:54:01;47.58;;;20.33;;
18274;SDS011;19470;49.322;7.218;2023-02-24T04:56:30;43.88;;;20.23;;
18274;SDS011;19470;49.322;7.218;2023-02-24T04:58:56;46.53;;;19.63;;
18274;SDS011;19470;49.322;7.218;2023-02-24T05:01:23;45.55;;;20.42;;
18274;SDS011;19470;49.322;7.218;2023-02-24T05:03:49;49.40;;;20.50;;
18274;SDS011;19470;49.322;7.218;2023-02-24T05:06:16;49.33;;;21.00;;
18274;SDS011;19470;49.322;7.218;2023-02-24T05:08:43;42.08;;;19.25;;
18274;SDS011;19470;49.322;7.218;2023-02-24T05:11:11;43.30;;;18.88;;
18274;SDS011;19470;49.322;7.218;2023-02-24T05:13:41;47.65;;;20.42;;
18274;SDS011;19470;49.322;7.218;2023-02-24T05:16:12;47.20;;;19.05;;
18274;SDS011;19470;49.322;7.218;2023-02-24T05:18:40;48.75;;;19.98;;
18274;SDS011;19470;49.322;7.218;2023-02-24T05:21:10;45.33;;;18.95;;
18274;SDS011;19470;49.322;7.218;2023-02-24T05:23:56;44.15;;;19.58;;
18274;SDS011;19470;49.322;7.218;2023-02-24T05:26:28;50.03;;;21.25;;
18274;SDS011;19470;49.322;7.218;2023-02-24T05:28:57;46.83;;;19.55;;
18274;SDS011;19470;49.322;7.218;2023-02-24T05:31:26;50.92;;;19.40;;
18274;SDS011;19470;49.322;7.218;2023-02-24T05:33:55;40.85;;;18.08;;
18274;SDS011;19470;49.322;7.218;2023-02-24T05:36:23;46.38;;;20.13;;
18274;SDS011;19470;49.322;7.218;2023-02-24T05:38:52;47.05;;;18.48;;
18274;SDS011;19470;49.322;7.218;2023-02-24T05:41:22;46.42;;;18.67;;
18274;SDS011;19470;49.322;7.218;2023-02-24T05:43:58;43.78;;;17.80;;
18274;SDS011;19470;49.322;7.218;2023-02-24T05:46:29;39.13;;;16.40;;
18274;SDS011;19470;49.322;7.218;2023-02-24T05:48:58;40.78;;;16.83;;
18274;SDS011;19470;49.322;7.218;2023-02-24T05:51:26;41.20;;;17.27;;
18274;SDS011;19470;49.322;7.218;2023-02-24T05:53:59;40.15;;;17.50;;
18274;SDS011;19470;49.322;7.218;2023-02-24T05:56:28;45.08;;;17.52;;
18274;SDS011;19470;49.322;7.218;2023-02-24T05:58:58;41.35;;;17.83;;
18274;SDS011;19470;49.322;7.218;2023-02-24T06:01:26;48.33;;;18.38;;
18274;SDS011;19470;49.322;7.218;2023-02-24T06:03:55;38.53;;;16.92;;
18274;SDS011;19470;49.322;7.218;2023-02-24T06:06:29;43.33;;;19.33;;
18274;SDS011;19470;49.322;7.218;2023-02-24T06:08:59;43.30;;;17.40;;
18274;SDS011;19470;49.322;7.218;2023-02-24T06:11:26;43.50;;;18.30;;
18274;SDS011;19470;49.322;7.218;2023-02-24T06:13:52;40.25;;;18.08;;
18274;SDS011;19470;49.322;7.218;2023-02-24T06:23:06;37.40;;;17.33;;
18274;SDS011;19470;49.322;7.218;2023-02-24T06:25:33;42.28;;;18.05;;
18274;SDS011;19470;49.322;7.218;2023-02-24T06:28:02;42.17;;;17.25;;
18274;SDS011;19470;49.322;7.218;2023-02-24T06:30:29;45.42;;;18.65;;
18274;SDS011;19470;49.322;7.218;2023-02-24T06:32:56;41.50;;;17.80;;
18274;SDS011;19470;49.322;7.218;2023-02-24T06:35:23;49.63;;;18.63;;
18274;SDS011;19470;49.322;7.218;2023-02-24T06:37:49;44.05;;;19.55;;
18274;SDS011;19470;49.322;7.218;2023-02-24T06:40:21;44.80;;;19.02;;
18274;SDS011;19470;49.322;7.218;2023-02-24T06:42:48;41.45;;;18.25;;
18274;SDS011;19470;49.322;7.218;2023-02-24T06:45:17;36.83;;;16.40;;
18274;SDS011;19470;49.322;7.218;2023-02-24T06:47:45;48.63;;;17.98;;
18274;SDS011;19470;49.322;7.218;2023-02-24T06:50:13;39.60;;;16.83;;
18274;SDS011;19470;49.322;7.218;2023-02-24T06:52:40;43.28;;;17.67;;
18274;SDS011;19470;49.322;7.218;2023-02-24T06:55:08;46.00;;;18.35;;
18274;SDS011;19470;49.322;7.218;2023-02-24T06:57:51;35.40;;;16.20;;
18274;SDS011;19470;49.322;7.218;2023-02-24T07:00:21;42.65;;;17.58;;
18274;SDS011;19470;49.322;7.218;2023-02-24T07:03:00;37.97;;;15.80;;
18274;SDS011;19470;49.322;7.218;2023-02-24T07:05:38;37.75;;;15.77;;
18274;SDS011;19470;49.322;7.218;2023-02-24T07:08:06;36.63;;;16.25;;
18274;SDS011;19470;49.322;7.218;2023-02-24T07:10:32;33.30;;;14.88;;
18274;SDS011;19470;49.322;7.218;2023-02-24T07:13:00;35.28;;;15.65;;
18274;SDS011;19470;49.322;7.218;2023-02-24T07:15:27;35.38;;;15.50;;
18274;SDS011;19470;49.322;7.218;2023-02-24T07:17:56;35.85;;;16.27;;
18274;SDS011;19470;49.322;7.218;2023-02-24T07:20:22;38.55;;;16.33;;
18274;SDS011;19470;49.322;7.218;2023-02-24T07:22:50;36.03;;;16.95;;
18274;SDS011;19470;49.322;7.218;2023-02-24T07:25:16;35.95;;;16.20;;
18274;SDS011;19470;49.322;7.218;2023-02-24T07:27:57;38.05;;;15.52;;
18274;SDS011;19470;49.322;7.218;2023-02-24T07:30:27;41.05;;;17.08;;
18274;SDS011;19470;49.322;7.218;2023-02-24T07:32:54;41.10;;;16.40;;
18274;SDS011;19470;49.322;7.218;2023-02-24T07:35:21;39.40;;;15.63;;
18274;SDS011;19470;49.322;7.218;2023-02-24T07:37:48;33.55;;;15.10;;
18274;SDS011;19470;49.322;7.218;2023-02-24T07:40:15;46.20;;;19.13;;
18274;SDS011;19470;49.322;7.218;2023-02-24T07:42:42;39.58;;;17.05;;
18274;SDS011;19470;49.322;7.218;2023-02-24T07:45:11;40.00;;;16.73;;
18274;SDS011;19470;49.322;7.218;2023-02-24T07:47:40;42.50;;;16.95;;
18274;SDS011;19470;49.322;7.218;2023-02-24T07:50:06;48.47;;;20.40;;
18274;SDS011;19470;49.322;7.218;2023-02-24T07:52:42;51.47;;;21.63;;
18274;SDS011;19470;49.322;7.218;2023-02-24T07:55:14;44.97;;;20.88;;
18274;SDS011;19470;49.322;7.218;2023-02-24T07:57:41;48.13;;;20.52;;
18274;SDS011;19470;49.322;7.218;2023-02-24T08:00:11;50.47;;;21.48;;
18274;SDS011;19470;49.322;7.218;2023-02-24T08:02:44;51.38;;;22.55;;
18274;SDS011;19470;49.322;7.218;2023-02-24T08:05:12;51.65;;;22.20;;
18274;SDS011;19470;49.322;7.218;2023-02-24T08:07:39;49.60;;;21.33;;
18274;SDS011;19470;49.322;7.218;2023-02-24T08:10:07;45.47;;;20.60;;
18274;SDS011;19470;49.322;7.218;2023-02-24T08:12:48;46.92;;;20.20;;
18274;SDS011;19470;49.322;7.218;2023-02-24T08:15:18;48.83;;;22.35;;
18274;SDS011;19470;49.322;7.218;2023-02-24T08:17:50;44.85;;;19.85;;
18274;SDS011;19470;49.322;7.218;2023-02-24T08:20:18;45.33;;;20.55;;
18274;SDS011;19470;49.322;7.218;2023-02-24T08:22:50;47.30;;;20.77;;
18274;SDS011;19470;49.322;7.218;2023-02-24T08:25:18;49.42;;;20.67;;
18274;SDS011;19470;49.322;7.218;2023-02-24T08:27:47;50.92;;;21.05;;
18274;SDS011;19470;49.322;7.218;2023-02-24T08:30:20;44.25;;;19.50;;
18274;SDS011;19470;49.322;7.218;2023-02-24T08:32:50;43.17;;;19.25;;
18274;SDS011;19470;49.322;7.218;2023-02-24T08:35:22;48.75;;;20.85;;
18274;SDS011;19470;49.322;7.218;2023-02-24T08:37:56;49.30;;;21.45;;
18274;SDS011;19470;49.322;7.218;2023-02-24T08:40:26;52.65;;;20.90;;
18274;SDS011;19470;49.322;7.218;2023-02-24T08:43:03;49.10;;;19.92;;
18274;SDS011;19470;49.322;7.218;2023-02-24T08:45:40;46.10;;;20.23;;
18274;SDS011;19470;49.322;7.218;2023-02-24T08:48:09;41.05;;;18.38;;
18274;SDS011;19470;49.322;7.218;2023-02-24T08:50:50;48.03;;;20.58;;
18274;SDS011;19470;49.322;7.218;2023-02-24T08:53:20;47.53;;;19.75;;
18274;SDS011;19470;49.322;7.218;2023-02-24T08:55:46;47.97;;;21.05;;
18274;SDS011;19470;49.322;7.218;2023-02-24T08:58:16;39.92;;;18.05;;
18274;SDS011;19470;49.322;7.218;2023-02-24T09:00:43;43.28;;;20.27;;
18274;SDS011;19470;49.322;7.218;2023-02-24T09:03:16;43.85;;;21.08;;
18274;SDS011;19470;49.322;7.218;2023-02-24T09:05:59;45.63;;;20.42;;
18274;SDS011;19470;49.322;7.218;2023-02-24T09:08:29;42.47;;;19.77;;
18274;SDS011;19470;49.322;7.218;2023-02-24T09:11:04;40.97;;;19.55;;
18274;SDS011;19470;49.322;7.218;2023-02-24T09:13:33;45.60;;;18.65;;
18274;SDS011;19470;49.322;7.218;2023-02-24T09:16:00;40.67;;;19.27;;
18274;SDS011;19470;49.322;7.218;2023-02-24T09:18:29;48.70;;;21.55;;
18274;SDS011;19470;49.322;7.218;2023-02-24T09:21:06;46.65;;;20.00;;
18274;SDS011;19470;49.322;7.218;2023-02-24T09:23:51;43.45;;;19.40;;
18274;SDS011;19470;49.322;7.218;2023-02-24T09:26:18;41.33;;;19.80;;
18274;SDS011;19470;49.322;7.218;2023-02-24T09:28:44;39.47;;;19.13;;
18274;SDS011;19470;49.322;7.218;2023-02-24T09:31:19;40.80;;;19.30;;
18274;SDS011;19470;49.322;7.218;2023-02-24T09:33:49;44.38;;;20.13;;
18274;SDS011;19470;49.322;7.218;2023-02-24T09:36:16;40.65;;;20.27;;
18274;SDS011;19470;49.322;7.218;2023-02-24T09:38:52;47.97;;;22.08;;
18274;SDS011;19470;49.322;7.218;2023-02-24T09:41:38;39.92;;;18.45;;
18274;SDS011;19470;49.322;7.218;2023-02-24T09:44:31;44.22;;;18.58;;
18274;SDS011;19470;49.322;7.218;2023-02-24T09:47:01;38.72;;;18.15;;
18274;SDS011;19470;49.322;7.218;2023-02-24T09:49:41;37.60;;;16.52;;
18274;SDS011;19470;49.322;7.218;2023-02-24T09:52:12;38.92;;;18.92;;
18274;SDS011;19470;49.322;7.218;2023-02-24T09:54:42;37.17;;;17.50;;
18274;SDS011;19470;49.322;7.218;2023-02-24T09:57:39;39.42;;;17.50;;
18274;SDS011;19470;49.322;7.218;2023-02-24T10:00:35;35.42;;;16.52;;
18274;SDS011;19470;49.322;7.218;2023-02-24T10:03:10;35.10;;;16.90;;
18274;SDS011;19470;49.322;7.218;2023-02-24T10:05:47;36.30;;;17.52;;
18274;SDS011;19470;49.322;7.218;2023-02-24T10:08:26;38.58;;;17.05;;
18274;SDS011;19470;49.322;7.218;2023-02-24T10:10:56;34.33;;;16.25;;
18274;SDS011;19470;49.322;7.218;2023-02-24T10:13:31;30.77;;;15.43;;
18274;SDS011;19470;49.322;7.218;2023-02-24T10:16:02;33.15;;;15.75;;
18274;SDS011;19470;49.322;7.218;2023-02-24T10:18:36;39.65;;;17.33;;
18274;SDS011;19470;49.322;7.218;2023-02-24T10:21:14;32.20;;;16.85;;
18274;SDS011;19470;49.322;7.218;2023-02-24T10:23:57;33.30;;;15.90;;
18274;SDS011;19470;49.322;7.218;2023-02-24T10:26:31;36.63;;;16.75;;
18274;SDS011;19470;49.322;7.218;2023-02-24T10:29:11;33.90;;;15.20;;
18274;SDS011;19470;49.322;7.218;2023-02-24T10:31:53;29.70;;;14.23;;
18274;SDS011;19470;49.322;7.218;2023-02-24T10:34:31;32.63;;;15.30;;
18274;SDS011;19470;49.322;7.218;2023-02-24T10:37:00;32.28;;;22.17;;
18274;SDS011;19470;49.322;7.218;2023-02-24T10:39:30;24.63;;;11.48;;
18274;SDS011;19470;49.322;7.218;2023-02-24T10:41:58;23.83;;;10.88;;
18274;SDS011;19470;49.322;7.218;2023-02-24T10:44:39;23.88;;;11.65;;
18274;SDS011;19470;49.322;7.218;2023-02-24T10:47:16;26.50;;;12.02;;
18274;SDS011;19470;49.322;7.218;2023-02-24T10:49:45;24.08;;;12.57;;
18274;SDS011;19470;49.322;7.218;2023-02-24T10:52:23;23.58;;;12.65;;
18274;SDS011;19470;49.322;7.218;2023-02-24T10:55:01;23.30;;;12.52;;
18274;SDS011;19470;49.322;7.218;2023-02-24T10:57:32;27.00;;;12.30;;
18274;SDS011;19470;49.322;7.218;2023-02-24T11:00:13;25.33;;;12.77;;
18274;SDS011;19470;49.322;7.218;2023-02-24T11:02:55;24.83;;;12.50;;
18274;SDS011;19470;49.322;7.218;2023-02-24T11:05:33;26.63;;;12.98;;
18274;SDS011;19470;49.322;7.218;2023-02-24T11:08:13;26.15;;;12.15;;
18274;SDS011;19470;49.322;7.218;2023-02-24T11:11:00;30.75;;;13.77;;
18274;SDS011;19470;49.322;7.218;2023-02-24T11:13:32;26.48;;;13.30;;
18274;SDS011;19470;49.322;7.218;2023-02-24T11:16:17;24.73;;;11.48;;
18274;SDS011;19470;49.322;7.218;2023-02-24T11:19:01;21.95;;;11.88;;
18274;SDS011;19470;49.322;7.218;2023-02-24T11:21:31;18.63;;;11.07;;
18274;SDS011;19470;49.322;7.218;2023-02-24T11:24:00;27.30;;;11.30;;
18274;SDS011;19470;49.322;7.218;2023-02-24T11:26:31;22.42;;;11.48;;
18274;SDS011;19470;49.322;7.218;2023-02-24T11:29:03;25.02;;;10.52;;
18274;SDS011;19470;49.322;7.218;2023-02-24T11:31:51;20.52;;;9.82;;
18274;SDS011;19470;49.322;7.218;2023-02-24T11:34:26;20.73;;;10.43;;
18274;SDS011;19470;49.322;7.218;2023-02-24T11:37:01;16.65;;;9.88;;
18274;SDS011;19470;49.322;7.218;2023-02-24T11:39:43;29.95;;;26.13;;
18274;SDS011;19470;49.322;7.218;2023-02-24T11:42:18;23.00;;;13.82;;
18274;SDS011;19470;49.322;7.218;2023-02-24T11:44:50;39.85;;;36.38;;
18274;SDS011;19470;49.322;7.218;2023-02-24T11:47:25;21.65;;;9.77;;
18274;SDS011;19470;49.322;7.218;2023-02-24T11:50:02;16.42;;;10.30;;
18274;SDS011;19470;49.322;7.218;2023-02-24T11:52:36;39.78;;;36.40;;
18274;SDS011;19470;49.322;7.218;2023-02-24T11:55:13;57.40;;;53.53;;
18274;SDS011;19470;49.322;7.218;2023-02-24T11:57:48;396.95;;;373.30;;
18274;SDS011;19470;49.322;7.218;2023-02-24T12:00:19;62.33;;;57.80;;
18274;SDS011;19470;49.322;7.218;2023-02-24T12:02:49;137.82;;;129.52;;
18274;SDS011;19470;49.322;7.218;2023-02-24T12:05:20;314.50;;;297.15;;
18274;SDS011;19470;49.322;7.218;2023-02-24T12:07:51;249.30;;;234.65;;
18274;SDS011;19470;49.322;7.218;2023-02-24T12:10:24;181.80;;;171.25;;
18274;SDS011;19470;49.322;7.218;2023-02-24T12:13:10;428.38;;;401.08;;
18274;SDS011;19470;49.322;7.218;2023-02-24T12:15:46;278.60;;;262.48;;
18274;SDS011;19470;49.322;7.218;2023-02-24T12:18:18;455.70;;;428.80;;
18274;SDS011;19470;49.322;7.218;2023-02-24T12:20:51;627.75;;;586.92;;
18274;SDS011;19470;49.322;7.218;2023-02-24T12:23:24;777.65;;;725.63;;
18274;SDS011;19470;49.322;7.218;2023-02-24T12:26:02;907.58;;;843.80;;
18274;SDS011;19470;49.322;7.218;2023-02-24T12:28:43;623.58;;;584.53;;
18274;SDS011;19470;49.322;7.218;2023-02-24T12:31:24;693.50;;;648.00;;
18274;SDS011;19470;49.322;7.218;2023-02-24T12:34:04;622.17;;;580.67;;
18274;SDS011;19470;49.322;7.218;2023-02-24T12:36:46;332.02;;;312.45;;
18274;SDS011;19470;49.322;7.218;2023-02-24T12:39:27;622.03;;;582.30;;
18274;SDS011;19470;49.322;7.218;2023-02-24T12:42:02;829.80;;;773.80;;
18274;SDS011;19470;49.322;7.218;2023-02-24T12:44:40;972.22;;;900.80;;
18274;SDS011;19470;49.322;7.218;2023-02-24T12:47:13;974.08;;;903.00;;
18274;SDS011;19470;49.322;7.218;2023-02-24T12:49:51;958.85;;;889.25;;
18274;SDS011;19470;49.322;7.218;2023-02-24T12:52:33;809.53;;;754.40;;
18274;SDS011;19470;49.322;7.218;2023-02-24T12:55:12;533.75;;;501.27;;
18274;SDS011;19470;49.322;7.218;2023-02-24T12:57:49;619.03;;;575.47;;
18274;SDS011;19470;49.322;7.218;2023-02-24T13:00:25;781.88;;;729.58;;
18274;SDS011;19470;49.322;7.218;2023-02-24T13:02:59;918.85;;;851.50;;
18274;SDS011;19470;49.322;7.218;2023-02-24T13:05:36;891.63;;;827.58;;
18274;SDS011;19470;49.322;7.218;2023-02-24T13:08:16;457.08;;;427.58;;
18274;SDS011;19470;49.322;7.218;2023-02-24T13:10:50;785.65;;;727.30;;
18274;SDS011;19470;49.322;7.218;2023-02-24T13:13:32;876.38;;;816.10;;
18274;SDS011;19470;49.322;7.218;2023-02-24T13:16:05;902.97;;;839.78;;
18274;SDS011;19470;49.322;7.218;2023-02-24T13:18:32;802.05;;;748.00;;
18274;SDS011;19470;49.322;7.218;2023-02-24T13:21:04;691.17;;;645.58;;
18274;SDS011;19470;49.322;7.218;2023-02-24T13:23:33;893.83;;;829.05;;
18274;SDS011;19470;49.322;7.218;2023-02-24T13:26:00;541.53;;;505.83;;
18274;SDS011;19470;49.322;7.218;2023-02-24T13:28:28;183.02;;;171.90;;
18274;SDS011;19470;49.322;7.218;2023-02-24T13:31:00;99.45;;;92.28;;
18274;SDS011;19470;49.322;7.218;2023-02-24T13:33:30;146.00;;;136.88;;
18274;SDS011;19470;49.322;7.218;2023-02-24T13:36:11;76.72;;;71.55;;
18274;SDS011;19470;49.322;7.218;2023-02-24T13:38:41;203.60;;;191.18;;
18274;SDS011;19470;49.322;7.218;2023-02-24T13:41:34;368.25;;;347.30;;
18274;SDS011;19470;49.322;7.218;2023-02-24T13:47:14;345.63;;;325.80;;
18274;SDS011;19470;49.322;7.218;2023-02-24T13:50:01;410.05;;;386.13;;
18274;SDS011;19470;49.322;7.218;2023-02-24T13:52:41;58.88;;;54.63;;
18274;SDS011;19470;49.322;7.218;2023-02-24T13:58:21;49.33;;;39.30;;
18274;SDS011;19470;49.322;7.218;2023-02-24T14:01:04;20.63;;;12.38;;
18274;SDS011;19470;49.322;7.218;2023-02-24T14:03:35;18.67;;;12.98;;
18274;SDS011;19470;49.322;7.218;2023-02-24T14:06:04;16.30;;;9.90;;
18274;SDS011;19470;49.322;7.218;2023-02-24T14:08:36;36.80;;;32.97;;
18274;SDS011;19470;49.322;7.218;2023-02-24T14:11:08;16.70;;;10.50;;
18274;SDS011;19470;49.322;7.218;2023-02-24T14:13:37;14.93;;;9.88;;
18274;SDS011;19470;49.322;7.218;2023-02-24T14:16:05;17.95;;;10.48;;
18274;SDS011;19470;49.322;7.218;2023-02-24T14:18:35;16.25;;;9.93;;
18274;SDS011;19470;49.322;7.218;2023-02-24T14:21:02;15.38;;;11.25;;
18274;SDS011;19470;49.322;7.218;2023-02-24T14:23:30;18.02;;;14.95;;
18274;SDS011;19470;49.322;7.218;2023-02-24T14:25:58;20.30;;;12.52;;
18274;SDS011;19470;49.322;7.218;2023-02-24T14:28:28;23.95;;;17.08;;
18274;SDS011;19470;49.322;7.218;2023-02-24T14:30:56;16.60;;;11.48;;
18274;SDS011;19470;49.322;7.218;2023-02-24T14:33:26;15.45;;;9.88;;
18274;SDS011;19470;49.322;7.218;2023-02-24T14:35:56;14.52;;;12.07;;
18274;SDS011;19470;49.322;7.218;2023-02-24T14:38:26;18.35;;;15.43;;
18274;SDS011;19470;49.322;7.218;2023-02-24T14:40:55;15.43;;;11.23;;
18274;SDS011;19470;49.322;7.218;2023-02-24T14:43:22;17.77;;;15.73;;
18274;SDS011;19470;49.322;7.218;2023-02-24T14:45:49;47.55;;;44.10;;
18274;SDS011;19470;49.322;7.218;2023-02-24T14:48:19;28.77;;;25.88;;
18274;SDS011;19470;49.322;7.218;2023-02-24T14:50:49;17.52;;;13.57;;
18274;SDS011;19470;49.322;7.218;2023-02-24T14:53:18;21.20;;;18.73;;
18274;SDS011;19470;49.322;7.218;2023-02-24T14:55:49;20.25;;;14.02;;
18274;SDS011;19470;49.322;7.218;2023-02-24T14:58:19;18.80;;;16.83;;
18274;SDS011;19470;49.322;7.218;2023-02-24T15:00:50;25.42;;;22.98;;
18274;SDS011;19470;49.322;7.218;2023-02-24T15:03:22;23.38;;;21.17;;